sensor_id;sensor_type;location;lat;lon;timestamp;P1;durP1;ratioP1;P2;durP2;ratioP2
39242;SDS011;29823;47.404;8.566;2023-06-19T00:02:19;12.40;;;6.85;;
39242;SDS011;29823;47.404;8.566;2023-06-19T00:04:47;10.73;;;7.45;;
39242;SDS011;29823;47.404;8.566;2023-06-19T00:07:15;8.07;;;6.25;;
39242;SDS011;29823;47.404;8.566;2023-06-19T00:09:43;10.25;;;6.60;;
39242;SDS011;29823;47.404;8.566;2023-06-19T00:12:10;7.68;;;6.28;;
39242;SDS011;29823;47.404;8.566;2023-06-19T00:14:38;8.75;;;6.93;;
39242;SDS011;29823;47.404;8.566;2023-06-19T00:17:06;9.23;;;6.93;;
39242;SDS011;29823;47.404;8.566;2023-06-19T00:19:35;12.15;;;6.47;;
39242;SDS011;29823;47.404;8.566;2023-06-19T00:22:03;11.07;;;6.32;;
39242;SDS011;29823;47.404;8.566;2023-06-19T00:24:31;10.52;;;6.78;;
39242;SDS011;29823;47.404;8.566;2023-06-19T00:26:59;10.60;;;6.70;;
39242;SDS011;29823;47.404;8.566;2023-06-19T00:29:29;10.20;;;7.05;;
39242;SDS011;29823;47.404;8.566;2023-06-19T00:31:57;7.28;;;6.05;;
39242;SDS011;29823;47.404;8.566;2023-06-19T00:34:25;9.80;;;6.43;;
39242;SDS011;29823;47.404;8.566;2023-06-19T00:36:55;8.45;;;6.47;;
39242;SDS011;29823;47.404;8.566;2023-06-19T00:39:23;8.80;;;7.25;;
39242;SDS011;29823;47.404;8.566;2023-06-19T00:41:51;8.88;;;6.32;;
39242;SDS011;29823;47.404;8.566;2023-06-19T00:44:19;8.63;;;6.88;;
39242;SDS011;29823;47.404;8.566;2023-06-19T00:46:47;9.15;;;6.85;;
39242;SDS011;29823;47.404;8.566;2023-06-19T00:49:19;8.38;;;7.00;;
39242;SDS011;29823;47.404;8.566;2023-06-19T00:51:46;8.65;;;6.45;;
39242;SDS011;29823;47.404;8.566;2023-06-19T00:54:16;9.93;;;6.82;;
39242;SDS011;29823;47.404;8.566;2023-06-19T00:56:44;9.88;;;7.20;;
39242;SDS011;29823;47.404;8.566;2023-06-19T00:59:14;16.20;;;7.72;;
39242;SDS011;29823;47.404;8.566;2023-06-19T01:01:43;11.45;;;7.35;;
39242;SDS011;29823;47.404;8.566;2023-06-19T01:04:12;11.50;;;8.00;;
39242;SDS011;29823;47.404;8.566;2023-06-19T01:06:42;10.40;;;7.30;;
39242;SDS011;29823;47.404;8.566;2023-06-19T01:09:14;9.68;;;7.03;;
39242;SDS011;29823;47.404;8.566;2023-06-19T01:11:47;8.75;;;6.43;;
39242;SDS011;29823;47.404;8.566;2023-06-19T01:14:21;10.45;;;6.38;;
39242;SDS011;29823;47.404;8.566;2023-06-19T01:16:54;13.65;;;7.22;;
39242;SDS011;29823;47.404;8.566;2023-06-19T01:19:23;10.88;;;7.47;;
39242;SDS011;29823;47.404;8.566;2023-06-19T01:21:52;10.55;;;6.75;;
39242;SDS011;29823;47.404;8.566;2023-06-19T01:24:22;10.50;;;7.07;;
39242;SDS011;29823;47.404;8.566;2023-06-19T01:26:50;8.15;;;6.50;;
39242;SDS011;29823;47.404;8.566;2023-06-19T01:29:18;9.05;;;6.30;;
39242;SDS011;29823;47.404;8.566;2023-06-19T01:31:48;8.93;;;6.78;;
39242;SDS011;29823;47.404;8.566;2023-06-19T01:34:21;8.90;;;7.07;;
39242;SDS011;29823;47.404;8.566;2023-06-19T01:36:49;9.40;;;7.35;;
39242;SDS011;29823;47.404;8.566;2023-06-19T01:39:18;9.40;;;7.30;;
39242;SDS011;29823;47.404;8.566;2023-06-19T01:41:49;8.05;;;6.68;;
39242;SDS011;29823;47.404;8.566;2023-06-19T01:44:19;10.68;;;7.18;;
39242;SDS011;29823;47.404;8.566;2023-06-19T01:46:47;10.18;;;6.63;;
39242;SDS011;29823;47.404;8.566;2023-06-19T01:49:15;10.25;;;7.03;;
39242;SDS011;29823;47.404;8.566;2023-06-19T01:51:43;14.13;;;7.85;;
39242;SDS011;29823;47.404;8.566;2023-06-19T01:54:11;10.60;;;7.60;;
39242;SDS011;29823;47.404;8.566;2023-06-19T01:56:39;9.77;;;6.88;;
39242;SDS011;29823;47.404;8.566;2023-06-19T01:59:08;9.25;;;6.93;;
39242;SDS011;29823;47.404;8.566;2023-06-19T02:01:36;10.70;;;7.03;;
39242;SDS011;29823;47.404;8.566;2023-06-19T02:04:04;11.25;;;6.85;;
39242;SDS011;29823;47.404;8.566;2023-06-19T02:06:32;9.48;;;6.90;;
39242;SDS011;29823;47.404;8.566;2023-06-19T02:09:00;10.63;;;7.25;;
39242;SDS011;29823;47.404;8.566;2023-06-19T02:11:28;9.30;;;7.85;;
39242;SDS011;29823;47.404;8.566;2023-06-19T02:13:56;12.13;;;8.05;;
39242;SDS011;29823;47.404;8.566;2023-06-19T02:16:25;11.73;;;8.23;;
39242;SDS011;29823;47.404;8.566;2023-06-19T02:18:53;11.35;;;8.05;;
39242;SDS011;29823;47.404;8.566;2023-06-19T02:21:21;18.83;;;9.73;;
39242;SDS011;29823;47.404;8.566;2023-06-19T02:23:49;14.27;;;9.93;;
39242;SDS011;29823;47.404;8.566;2023-06-19T02:26:17;16.95;;;10.65;;
39242;SDS011;29823;47.404;8.566;2023-06-19T02:28:45;20.25;;;11.13;;
39242;SDS011;29823;47.404;8.566;2023-06-19T02:31:13;19.95;;;12.40;;
39242;SDS011;29823;47.404;8.566;2023-06-19T02:33:42;19.98;;;12.65;;
39242;SDS011;29823;47.404;8.566;2023-06-19T02:36:10;22.30;;;14.27;;
39242;SDS011;29823;47.404;8.566;2023-06-19T02:38:38;22.15;;;13.82;;
39242;SDS011;29823;47.404;8.566;2023-06-19T02:41:05;19.40;;;14.75;;
39242;SDS011;29823;47.404;8.566;2023-06-19T02:43:33;23.20;;;15.55;;
39242;SDS011;29823;47.404;8.566;2023-06-19T02:46:01;28.98;;;16.38;;
39242;SDS011;29823;47.404;8.566;2023-06-19T02:48:29;23.17;;;15.70;;
39242;SDS011;29823;47.404;8.566;2023-06-19T02:50:58;21.52;;;16.95;;
39242;SDS011;29823;47.404;8.566;2023-06-19T02:53:25;26.83;;;18.60;;
39242;SDS011;29823;47.404;8.566;2023-06-19T02:55:53;25.42;;;17.48;;
39242;SDS011;29823;47.404;8.566;2023-06-19T02:58:21;26.13;;;17.63;;
39242;SDS011;29823;47.404;8.566;2023-06-19T03:00:49;26.40;;;18.67;;
39242;SDS011;29823;47.404;8.566;2023-06-19T03:03:17;21.00;;;18.02;;
39242;SDS011;29823;47.404;8.566;2023-06-19T03:05:45;21.00;;;18.58;;
39242;SDS011;29823;47.404;8.566;2023-06-19T03:08:14;23.65;;;17.92;;
39242;SDS011;29823;47.404;8.566;2023-06-19T03:10:42;19.30;;;15.45;;
39242;SDS011;29823;47.404;8.566;2023-06-19T03:13:09;20.83;;;15.73;;
39242;SDS011;29823;47.404;8.566;2023-06-19T03:15:37;24.38;;;17.30;;
39242;SDS011;29823;47.404;8.566;2023-06-19T03:18:05;24.33;;;16.45;;
39242;SDS011;29823;47.404;8.566;2023-06-19T03:20:35;19.88;;;15.75;;
39242;SDS011;29823;47.404;8.566;2023-06-19T03:23:03;19.50;;;15.45;;
39242;SDS011;29823;47.404;8.566;2023-06-19T03:25:32;29.10;;;16.80;;
39242;SDS011;29823;47.404;8.566;2023-06-19T03:28:01;21.60;;;16.20;;
39242;SDS011;29823;47.404;8.566;2023-06-19T03:30:29;21.50;;;16.27;;
39242;SDS011;29823;47.404;8.566;2023-06-19T03:32:57;22.23;;;16.02;;
39242;SDS011;29823;47.404;8.566;2023-06-19T03:35:25;22.77;;;16.17;;
39242;SDS011;29823;47.404;8.566;2023-06-19T03:37:52;21.95;;;14.95;;
39242;SDS011;29823;47.404;8.566;2023-06-19T03:40:20;21.17;;;15.02;;
39242;SDS011;29823;47.404;8.566;2023-06-19T03:42:50;23.85;;;16.95;;
39242;SDS011;29823;47.404;8.566;2023-06-19T03:45:18;28.45;;;16.92;;
39242;SDS011;29823;47.404;8.566;2023-06-19T03:47:46;21.33;;;16.40;;
39242;SDS011;29823;47.404;8.566;2023-06-19T03:50:14;21.45;;;17.55;;
39242;SDS011;29823;47.404;8.566;2023-06-19T03:52:56;24.48;;;17.73;;
39242;SDS011;29823;47.404;8.566;2023-06-19T03:55:24;22.35;;;16.88;;
39242;SDS011;29823;47.404;8.566;2023-06-19T03:57:53;22.92;;;16.80;;
39242;SDS011;29823;47.404;8.566;2023-06-19T04:00:21;24.13;;;16.52;;
39242;SDS011;29823;47.404;8.566;2023-06-19T04:02:50;28.58;;;17.02;;
39242;SDS011;29823;47.404;8.566;2023-06-19T04:05:18;23.60;;;17.27;;
39242;SDS011;29823;47.404;8.566;2023-06-19T04:07:46;22.92;;;16.83;;
39242;SDS011;29823;47.404;8.566;2023-06-19T04:10:14;22.20;;;17.67;;
39242;SDS011;29823;47.404;8.566;2023-06-19T04:12:42;21.08;;;17.00;;
39242;SDS011;29823;47.404;8.566;2023-06-19T04:15:13;19.83;;;16.25;;
39242;SDS011;29823;47.404;8.566;2023-06-19T04:17:40;25.65;;;16.48;;
39242;SDS011;29823;47.404;8.566;2023-06-19T04:20:10;18.90;;;16.27;;
39242;SDS011;29823;47.404;8.566;2023-06-19T04:22:38;19.85;;;16.40;;
39242;SDS011;29823;47.404;8.566;2023-06-19T04:25:07;27.55;;;18.02;;
39242;SDS011;29823;47.404;8.566;2023-06-19T04:27:36;28.08;;;18.73;;
39242;SDS011;29823;47.404;8.566;2023-06-19T04:30:04;22.00;;;18.05;;
39242;SDS011;29823;47.404;8.566;2023-06-19T04:32:35;27.77;;;19.23;;
39242;SDS011;29823;47.404;8.566;2023-06-19T04:35:07;31.73;;;20.80;;
39242;SDS011;29823;47.404;8.566;2023-06-19T04:37:35;31.48;;;20.48;;
39242;SDS011;29823;47.404;8.566;2023-06-19T04:40:03;34.40;;;20.60;;
39242;SDS011;29823;47.404;8.566;2023-06-19T04:42:33;26.20;;;19.40;;
39242;SDS011;29823;47.404;8.566;2023-06-19T04:45:01;32.63;;;19.50;;
39242;SDS011;29823;47.404;8.566;2023-06-19T04:47:29;27.38;;;18.35;;
39242;SDS011;29823;47.404;8.566;2023-06-19T04:50:10;26.40;;;18.27;;
39242;SDS011;29823;47.404;8.566;2023-06-19T04:52:38;20.98;;;15.35;;
39242;SDS011;29823;47.404;8.566;2023-06-19T04:55:06;26.60;;;15.82;;
39242;SDS011;29823;47.404;8.566;2023-06-19T04:57:36;26.10;;;15.18;;
39242;SDS011;29823;47.404;8.566;2023-06-19T05:00:04;18.00;;;14.68;;
39242;SDS011;29823;47.404;8.566;2023-06-19T05:02:33;24.13;;;14.05;;
39242;SDS011;29823;47.404;8.566;2023-06-19T05:05:01;20.63;;;14.77;;
39242;SDS011;29823;47.404;8.566;2023-06-19T05:07:31;22.88;;;13.93;;
39242;SDS011;29823;47.404;8.566;2023-06-19T05:09:59;20.88;;;14.75;;
39242;SDS011;29823;47.404;8.566;2023-06-19T05:12:27;19.80;;;14.02;;
39242;SDS011;29823;47.404;8.566;2023-06-19T05:14:54;18.27;;;12.13;;
39242;SDS011;29823;47.404;8.566;2023-06-19T05:17:22;22.10;;;14.25;;
39242;SDS011;29823;47.404;8.566;2023-06-19T05:19:50;25.77;;;12.73;;
39242;SDS011;29823;47.404;8.566;2023-06-19T05:22:18;23.25;;;13.57;;
39242;SDS011;29823;47.404;8.566;2023-06-19T05:24:49;19.23;;;13.50;;
39242;SDS011;29823;47.404;8.566;2023-06-19T05:27:17;21.98;;;13.60;;
39242;SDS011;29823;47.404;8.566;2023-06-19T05:29:44;19.27;;;13.88;;
39242;SDS011;29823;47.404;8.566;2023-06-19T05:32:12;20.08;;;14.23;;
39242;SDS011;29823;47.404;8.566;2023-06-19T05:34:40;18.42;;;14.18;;
39242;SDS011;29823;47.404;8.566;2023-06-19T05:37:08;25.60;;;14.60;;
39242;SDS011;29823;47.404;8.566;2023-06-19T05:39:35;22.92;;;15.25;;
39242;SDS011;29823;47.404;8.566;2023-06-19T05:42:05;24.17;;;15.52;;
39242;SDS011;29823;47.404;8.566;2023-06-19T05:44:34;25.88;;;15.23;;
39242;SDS011;29823;47.404;8.566;2023-06-19T05:47:02;20.30;;;14.98;;
39242;SDS011;29823;47.404;8.566;2023-06-19T05:49:29;18.30;;;12.80;;
39242;SDS011;29823;47.404;8.566;2023-06-19T05:51:57;16.58;;;13.07;;
39242;SDS011;29823;47.404;8.566;2023-06-19T05:54:25;20.75;;;14.85;;
39242;SDS011;29823;47.404;8.566;2023-06-19T05:56:53;18.67;;;14.88;;
39242;SDS011;29823;47.404;8.566;2023-06-19T05:59:22;19.20;;;14.82;;
39242;SDS011;29823;47.404;8.566;2023-06-19T06:01:53;20.52;;;14.93;;
39242;SDS011;29823;47.404;8.566;2023-06-19T06:04:21;18.15;;;14.77;;
39242;SDS011;29823;47.404;8.566;2023-06-19T06:06:49;19.73;;;15.40;;
39242;SDS011;29823;47.404;8.566;2023-06-19T06:09:17;29.17;;;16.23;;
39242;SDS011;29823;47.404;8.566;2023-06-19T06:11:46;23.90;;;17.67;;
39242;SDS011;29823;47.404;8.566;2023-06-19T06:14:15;26.08;;;16.85;;
39242;SDS011;29823;47.404;8.566;2023-06-19T06:16:44;21.67;;;16.80;;
39242;SDS011;29823;47.404;8.566;2023-06-19T06:19:12;22.42;;;16.00;;
39242;SDS011;29823;47.404;8.566;2023-06-19T06:21:40;21.17;;;14.73;;
39242;SDS011;29823;47.404;8.566;2023-06-19T06:24:08;21.20;;;15.27;;
39242;SDS011;29823;47.404;8.566;2023-06-19T06:26:36;22.73;;;15.10;;
39242;SDS011;29823;47.404;8.566;2023-06-19T06:29:04;20.77;;;14.77;;
39242;SDS011;29823;47.404;8.566;2023-06-19T06:31:32;22.67;;;14.77;;
39242;SDS011;29823;47.404;8.566;2023-06-19T06:34:01;20.95;;;15.65;;
39242;SDS011;29823;47.404;8.566;2023-06-19T06:36:29;19.20;;;14.18;;
39242;SDS011;29823;47.404;8.566;2023-06-19T06:39:00;17.75;;;13.55;;
39242;SDS011;29823;47.404;8.566;2023-06-19T06:41:28;20.23;;;14.23;;
39242;SDS011;29823;47.404;8.566;2023-06-19T06:43:56;16.73;;;13.60;;
39242;SDS011;29823;47.404;8.566;2023-06-19T06:46:24;16.40;;;12.75;;
39242;SDS011;29823;47.404;8.566;2023-06-19T06:48:52;15.10;;;11.82;;
39242;SDS011;29823;47.404;8.566;2023-06-19T06:51:21;17.35;;;11.95;;
39242;SDS011;29823;47.404;8.566;2023-06-19T06:53:49;20.48;;;12.32;;
39242;SDS011;29823;47.404;8.566;2023-06-19T06:56:17;15.05;;;11.50;;
39242;SDS011;29823;47.404;8.566;2023-06-19T06:58:45;18.77;;;11.20;;
39242;SDS011;29823;47.404;8.566;2023-06-19T07:01:13;15.48;;;10.73;;
39242;SDS011;29823;47.404;8.566;2023-06-19T07:03:41;15.15;;;10.82;;
39242;SDS011;29823;47.404;8.566;2023-06-19T07:06:09;12.55;;;9.18;;
39242;SDS011;29823;47.404;8.566;2023-06-19T07:08:39;10.85;;;8.38;;
39242;SDS011;29823;47.404;8.566;2023-06-19T07:11:07;9.43;;;7.80;;
39242;SDS011;29823;47.404;8.566;2023-06-19T07:13:35;12.10;;;7.63;;
39242;SDS011;29823;47.404;8.566;2023-06-19T07:16:03;11.68;;;8.07;;
39242;SDS011;29823;47.404;8.566;2023-06-19T07:18:31;10.20;;;7.28;;
39242;SDS011;29823;47.404;8.566;2023-06-19T07:20:59;12.07;;;7.20;;
39242;SDS011;29823;47.404;8.566;2023-06-19T07:23:27;10.70;;;6.95;;
39242;SDS011;29823;47.404;8.566;2023-06-19T07:25:56;9.80;;;7.32;;
39242;SDS011;29823;47.404;8.566;2023-06-19T07:28:24;12.13;;;7.78;;
39242;SDS011;29823;47.404;8.566;2023-06-19T07:30:52;11.07;;;7.80;;
39242;SDS011;29823;47.404;8.566;2023-06-19T07:33:20;13.18;;;8.45;;
39242;SDS011;29823;47.404;8.566;2023-06-19T07:35:48;17.33;;;9.27;;
39242;SDS011;29823;47.404;8.566;2023-06-19T07:38:17;11.23;;;8.77;;
39242;SDS011;29823;47.404;8.566;2023-06-19T07:40:44;13.43;;;8.80;;
39242;SDS011;29823;47.404;8.566;2023-06-19T07:43:14;10.18;;;8.52;;
39242;SDS011;29823;47.404;8.566;2023-06-19T07:45:41;14.43;;;9.15;;
39242;SDS011;29823;47.404;8.566;2023-06-19T07:48:09;11.63;;;8.73;;
39242;SDS011;29823;47.404;8.566;2023-06-19T07:50:37;11.68;;;8.98;;
39242;SDS011;29823;47.404;8.566;2023-06-19T07:53:05;11.00;;;8.55;;
39242;SDS011;29823;47.404;8.566;2023-06-19T07:55:33;16.30;;;9.68;;
39242;SDS011;29823;47.404;8.566;2023-06-19T07:58:01;11.55;;;9.55;;
39242;SDS011;29823;47.404;8.566;2023-06-19T08:00:31;15.27;;;9.57;;
39242;SDS011;29823;47.404;8.566;2023-06-19T08:02:59;15.27;;;9.15;;
39242;SDS011;29823;47.404;8.566;2023-06-19T08:05:27;16.15;;;8.50;;
39242;SDS011;29823;47.404;8.566;2023-06-19T08:07:55;15.82;;;9.07;;
39242;SDS011;29823;47.404;8.566;2023-06-19T08:10:24;9.52;;;8.43;;
39242;SDS011;29823;47.404;8.566;2023-06-19T08:12:53;11.43;;;9.00;;
39242;SDS011;29823;47.404;8.566;2023-06-19T08:15:20;14.52;;;8.88;;
39242;SDS011;29823;47.404;8.566;2023-06-19T08:17:50;12.15;;;10.30;;
39242;SDS011;29823;47.404;8.566;2023-06-19T08:20:17;13.55;;;9.40;;
39242;SDS011;29823;47.404;8.566;2023-06-19T08:22:46;13.18;;;9.10;;
39242;SDS011;29823;47.404;8.566;2023-06-19T08:25:14;13.30;;;9.20;;
39242;SDS011;29823;47.404;8.566;2023-06-19T08:27:42;15.93;;;9.65;;
39242;SDS011;29823;47.404;8.566;2023-06-19T08:30:11;11.82;;;9.95;;
39242;SDS011;29823;47.404;8.566;2023-06-19T08:32:39;22.15;;;9.48;;
39242;SDS011;29823;47.404;8.566;2023-06-19T08:35:08;11.80;;;8.63;;
39242;SDS011;29823;47.404;8.566;2023-06-19T08:37:36;12.32;;;9.18;;
39242;SDS011;29823;47.404;8.566;2023-06-19T08:40:04;14.32;;;9.52;;
39242;SDS011;29823;47.404;8.566;2023-06-19T08:42:36;12.38;;;9.90;;
39242;SDS011;29823;47.404;8.566;2023-06-19T08:45:05;10.15;;;8.60;;
39242;SDS011;29823;47.404;8.566;2023-06-19T08:47:35;11.75;;;8.80;;
39242;SDS011;29823;47.404;8.566;2023-06-19T08:50:03;11.45;;;8.52;;
39242;SDS011;29823;47.404;8.566;2023-06-19T08:52:32;12.35;;;9.02;;
39242;SDS011;29823;47.404;8.566;2023-06-19T08:55:00;11.45;;;9.00;;
39242;SDS011;29823;47.404;8.566;2023-06-19T08:57:35;15.07;;;8.10;;
39242;SDS011;29823;47.404;8.566;2023-06-19T09:00:03;11.05;;;7.38;;
39242;SDS011;29823;47.404;8.566;2023-06-19T09:02:36;9.48;;;6.25;;
39242;SDS011;29823;47.404;8.566;2023-06-19T09:05:13;9.02;;;7.63;;
39242;SDS011;29823;47.404;8.566;2023-06-19T09:07:43;10.00;;;7.57;;
39242;SDS011;29823;47.404;8.566;2023-06-19T09:10:15;13.98;;;7.50;;
39242;SDS011;29823;47.404;8.566;2023-06-19T09:12:44;10.80;;;7.28;;
39242;SDS011;29823;47.404;8.566;2023-06-19T09:15:23;9.00;;;6.80;;
39242;SDS011;29823;47.404;8.566;2023-06-19T09:18:02;9.15;;;6.72;;
39242;SDS011;29823;47.404;8.566;2023-06-19T09:20:30;14.98;;;7.30;;
39242;SDS011;29823;47.404;8.566;2023-06-19T09:23:00;9.25;;;6.80;;
39242;SDS011;29823;47.404;8.566;2023-06-19T09:25:29;12.73;;;6.65;;
39242;SDS011;29823;47.404;8.566;2023-06-19T09:27:57;9.40;;;6.80;;
39242;SDS011;29823;47.404;8.566;2023-06-19T09:30:25;10.27;;;7.07;;
39242;SDS011;29823;47.404;8.566;2023-06-19T09:32:53;12.02;;;7.07;;
39242;SDS011;29823;47.404;8.566;2023-06-19T09:35:21;9.02;;;6.85;;
39242;SDS011;29823;47.404;8.566;2023-06-19T09:37:49;12.88;;;7.20;;
39242;SDS011;29823;47.404;8.566;2023-06-19T09:40:20;11.02;;;7.05;;
39242;SDS011;29823;47.404;8.566;2023-06-19T09:42:49;10.45;;;7.70;;
39242;SDS011;29823;47.404;8.566;2023-06-19T09:45:21;12.00;;;7.72;;
39242;SDS011;29823;47.404;8.566;2023-06-19T09:47:52;9.82;;;7.47;;
39242;SDS011;29823;47.404;8.566;2023-06-19T09:50:22;12.18;;;7.63;;
39242;SDS011;29823;47.404;8.566;2023-06-19T09:52:54;12.02;;;8.13;;
39242;SDS011;29823;47.404;8.566;2023-06-19T09:55:25;14.60;;;7.03;;
39242;SDS011;29823;47.404;8.566;2023-06-19T09:57:57;15.95;;;7.15;;
39242;SDS011;29823;47.404;8.566;2023-06-19T10:00:26;9.98;;;7.43;;
39242;SDS011;29823;47.404;8.566;2023-06-19T10:02:57;12.73;;;7.65;;
39242;SDS011;29823;47.404;8.566;2023-06-19T10:05:29;13.25;;;8.25;;
39242;SDS011;29823;47.404;8.566;2023-06-19T10:07:58;16.40;;;8.15;;
39242;SDS011;29823;47.404;8.566;2023-06-19T10:10:28;11.85;;;8.00;;
39242;SDS011;29823;47.404;8.566;2023-06-19T10:13:00;11.20;;;7.57;;
39242;SDS011;29823;47.404;8.566;2023-06-19T10:15:40;12.25;;;7.30;;
39242;SDS011;29823;47.404;8.566;2023-06-19T10:18:12;9.98;;;7.80;;
39242;SDS011;29823;47.404;8.566;2023-06-19T10:20:43;9.95;;;7.50;;
39242;SDS011;29823;47.404;8.566;2023-06-19T10:23:14;11.77;;;9.23;;
39242;SDS011;29823;47.404;8.566;2023-06-19T10:25:47;11.45;;;7.47;;
39242;SDS011;29823;47.404;8.566;2023-06-19T10:28:16;12.15;;;8.85;;
39242;SDS011;29823;47.404;8.566;2023-06-19T10:30:51;11.10;;;7.72;;
39242;SDS011;29823;47.404;8.566;2023-06-19T10:33:20;11.63;;;7.45;;
39242;SDS011;29823;47.404;8.566;2023-06-19T10:35:48;15.90;;;7.82;;
39242;SDS011;29823;47.404;8.566;2023-06-19T10:38:16;11.30;;;8.60;;
39242;SDS011;29823;47.404;8.566;2023-06-19T10:40:44;14.68;;;8.48;;
39242;SDS011;29823;47.404;8.566;2023-06-19T10:43:18;9.65;;;8.10;;
39242;SDS011;29823;47.404;8.566;2023-06-19T10:45:47;15.77;;;8.75;;
39242;SDS011;29823;47.404;8.566;2023-06-19T10:48:18;13.27;;;8.02;;
39242;SDS011;29823;47.404;8.566;2023-06-19T10:53:22;10.48;;;7.82;;
39242;SDS011;29823;47.404;8.566;2023-06-19T10:55:55;8.10;;;6.80;;
39242;SDS011;29823;47.404;8.566;2023-06-19T10:58:23;10.70;;;7.80;;
39242;SDS011;29823;47.404;8.566;2023-06-19T11:00:51;9.32;;;7.15;;
39242;SDS011;29823;47.404;8.566;2023-06-19T11:03:19;8.60;;;7.18;;
39242;SDS011;29823;47.404;8.566;2023-06-19T11:05:48;8.70;;;6.80;;
39242;SDS011;29823;47.404;8.566;2023-06-19T11:08:17;11.90;;;6.82;;
39242;SDS011;29823;47.404;8.566;2023-06-19T11:10:46;8.93;;;6.32;;
39242;SDS011;29823;47.404;8.566;2023-06-19T11:13:15;9.85;;;7.15;;
39242;SDS011;29823;47.404;8.566;2023-06-19T11:15:44;8.17;;;7.27;;
39242;SDS011;29823;47.404;8.566;2023-06-19T11:18:14;9.32;;;6.45;;
39242;SDS011;29823;47.404;8.566;2023-06-19T11:20:43;7.70;;;6.40;;
39242;SDS011;29823;47.404;8.566;2023-06-19T11:23:12;9.55;;;5.60;;
39242;SDS011;29823;47.404;8.566;2023-06-19T11:25:41;8.55;;;5.70;;
39242;SDS011;29823;47.404;8.566;2023-06-19T11:28:12;8.85;;;5.90;;
39242;SDS011;29823;47.404;8.566;2023-06-19T11:30:44;7.20;;;5.60;;
39242;SDS011;29823;47.404;8.566;2023-06-19T11:33:17;8.10;;;5.60;;
39242;SDS011;29823;47.404;8.566;2023-06-19T11:35:48;6.72;;;5.72;;
39242;SDS011;29823;47.404;8.566;2023-06-19T11:38:17;9.85;;;6.05;;
39242;SDS011;29823;47.404;8.566;2023-06-19T11:40:46;9.13;;;5.28;;
39242;SDS011;29823;47.404;8.566;2023-06-19T11:43:24;6.85;;;4.70;;
39242;SDS011;29823;47.404;8.566;2023-06-19T11:45:52;7.55;;;4.70;;
39242;SDS011;29823;47.404;8.566;2023-06-19T11:48:21;5.00;;;4.50;;
39242;SDS011;29823;47.404;8.566;2023-06-19T11:50:50;5.03;;;4.00;;
39242;SDS011;29823;47.404;8.566;2023-06-19T11:53:19;8.48;;;4.10;;
39242;SDS011;29823;47.404;8.566;2023-06-19T11:55:47;7.32;;;4.80;;
39242;SDS011;29823;47.404;8.566;2023-06-19T11:58:15;5.28;;;4.03;;
39242;SDS011;29823;47.404;8.566;2023-06-19T12:00:45;6.72;;;4.35;;
39242;SDS011;29823;47.404;8.566;2023-06-19T12:03:13;7.35;;;4.30;;
39242;SDS011;29823;47.404;8.566;2023-06-19T12:05:41;10.48;;;3.95;;
39242;SDS011;29823;47.404;8.566;2023-06-19T12:08:09;5.13;;;3.97;;
39242;SDS011;29823;47.404;8.566;2023-06-19T12:10:37;6.35;;;4.13;;
39242;SDS011;29823;47.404;8.566;2023-06-19T12:13:05;5.95;;;3.70;;
39242;SDS011;29823;47.404;8.566;2023-06-19T12:15:33;5.72;;;3.90;;
39242;SDS011;29823;47.404;8.566;2023-06-19T12:18:04;6.43;;;4.20;;
39242;SDS011;29823;47.404;8.566;2023-06-19T12:20:33;5.03;;;3.85;;
39242;SDS011;29823;47.404;8.566;2023-06-19T12:23:02;5.88;;;4.22;;
39242;SDS011;29823;47.404;8.566;2023-06-19T12:25:30;5.88;;;4.40;;
39242;SDS011;29823;47.404;8.566;2023-06-19T12:27:58;7.43;;;4.50;;
39242;SDS011;29823;47.404;8.566;2023-06-19T12:30:26;5.30;;;4.03;;
39242;SDS011;29823;47.404;8.566;2023-06-19T12:32:53;6.13;;;3.95;;
39242;SDS011;29823;47.404;8.566;2023-06-19T12:35:22;4.90;;;4.40;;
39242;SDS011;29823;47.404;8.566;2023-06-19T12:37:52;7.43;;;3.95;;
39242;SDS011;29823;47.404;8.566;2023-06-19T12:40:21;5.80;;;4.28;;
39242;SDS011;29823;47.404;8.566;2023-06-19T12:42:49;5.72;;;4.10;;
39242;SDS011;29823;47.404;8.566;2023-06-19T12:45:17;8.02;;;4.40;;
39242;SDS011;29823;47.404;8.566;2023-06-19T12:47:45;4.65;;;3.92;;
39242;SDS011;29823;47.404;8.566;2023-06-19T12:50:13;6.20;;;4.50;;
39242;SDS011;29823;47.404;8.566;2023-06-19T12:52:42;14.77;;;4.10;;
39242;SDS011;29823;47.404;8.566;2023-06-19T12:55:10;6.95;;;3.65;;
39242;SDS011;29823;47.404;8.566;2023-06-19T12:57:38;4.57;;;4.07;;
39242;SDS011;29823;47.404;8.566;2023-06-19T13:00:09;6.65;;;4.28;;
39242;SDS011;29823;47.404;8.566;2023-06-19T13:02:39;3.90;;;3.20;;
39242;SDS011;29823;47.404;8.566;2023-06-19T13:07:37;4.18;;;3.78;;
39242;SDS011;29823;47.404;8.566;2023-06-19T13:10:06;6.78;;;3.63;;
39242;SDS011;29823;47.404;8.566;2023-06-19T13:12:35;11.70;;;3.90;;
39242;SDS011;29823;47.404;8.566;2023-06-19T13:15:03;4.18;;;3.78;;
39242;SDS011;29823;47.404;8.566;2023-06-19T13:17:31;8.43;;;4.07;;
39242;SDS011;29823;47.404;8.566;2023-06-19T13:19:59;4.68;;;3.90;;
39242;SDS011;29823;47.404;8.566;2023-06-19T13:22:27;6.18;;;4.68;;
39242;SDS011;29823;47.404;8.566;2023-06-19T13:24:55;8.40;;;4.20;;
39242;SDS011;29823;47.404;8.566;2023-06-19T13:27:24;5.30;;;4.25;;
39242;SDS011;29823;47.404;8.566;2023-06-19T13:29:54;11.63;;;7.22;;
39242;SDS011;29823;47.404;8.566;2023-06-19T13:32:22;6.75;;;4.88;;
39242;SDS011;29823;47.404;8.566;2023-06-19T13:34:50;9.50;;;4.85;;
39242;SDS011;29823;47.404;8.566;2023-06-19T13:37:18;6.78;;;4.65;;
39242;SDS011;29823;47.404;8.566;2023-06-19T13:39:47;7.53;;;4.90;;
39242;SDS011;29823;47.404;8.566;2023-06-19T13:42:15;8.52;;;4.43;;
39242;SDS011;29823;47.404;8.566;2023-06-19T13:44:44;5.80;;;4.28;;
39242;SDS011;29823;47.404;8.566;2023-06-19T13:47:16;10.65;;;5.22;;
39242;SDS011;29823;47.404;8.566;2023-06-19T13:49:44;5.85;;;4.75;;
39242;SDS011;29823;47.404;8.566;2023-06-19T13:52:12;11.05;;;5.10;;
39242;SDS011;29823;47.404;8.566;2023-06-19T13:54:40;8.10;;;5.50;;
39242;SDS011;29823;47.404;8.566;2023-06-19T13:57:07;10.77;;;4.88;;
39242;SDS011;29823;47.404;8.566;2023-06-19T13:59:35;12.63;;;5.63;;
39242;SDS011;29823;47.404;8.566;2023-06-19T14:02:05;7.15;;;5.05;;
39242;SDS011;29823;47.404;8.566;2023-06-19T14:04:32;7.63;;;5.47;;
39242;SDS011;29823;47.404;8.566;2023-06-19T14:07:00;16.65;;;10.23;;
39242;SDS011;29823;47.404;8.566;2023-06-19T14:09:28;8.55;;;5.10;;
39242;SDS011;29823;47.404;8.566;2023-06-19T14:11:56;8.35;;;4.90;;
39242;SDS011;29823;47.404;8.566;2023-06-19T14:14:24;8.52;;;4.72;;
39242;SDS011;29823;47.404;8.566;2023-06-19T14:16:52;6.30;;;5.43;;
39242;SDS011;29823;47.404;8.566;2023-06-19T14:19:22;6.30;;;4.95;;
39242;SDS011;29823;47.404;8.566;2023-06-19T14:21:49;7.18;;;5.20;;
39242;SDS011;29823;47.404;8.566;2023-06-19T14:24:18;7.20;;;5.32;;
39242;SDS011;29823;47.404;8.566;2023-06-19T14:26:46;12.50;;;5.70;;
39242;SDS011;29823;47.404;8.566;2023-06-19T14:29:14;7.90;;;5.40;;
39242;SDS011;29823;47.404;8.566;2023-06-19T14:31:45;10.00;;;5.55;;
39242;SDS011;29823;47.404;8.566;2023-06-19T14:34:12;8.93;;;5.63;;
39242;SDS011;29823;47.404;8.566;2023-06-19T14:36:42;6.35;;;5.55;;
39242;SDS011;29823;47.404;8.566;2023-06-19T14:39:09;8.30;;;5.75;;
39242;SDS011;29823;47.404;8.566;2023-06-19T14:41:37;9.15;;;5.35;;
39242;SDS011;29823;47.404;8.566;2023-06-19T14:44:05;9.15;;;5.63;;
39242;SDS011;29823;47.404;8.566;2023-06-19T14:46:33;6.88;;;5.80;;
39242;SDS011;29823;47.404;8.566;2023-06-19T14:49:05;6.38;;;5.13;;
39242;SDS011;29823;47.404;8.566;2023-06-19T14:51:33;11.13;;;5.47;;